Bridgeport Valley, California Weather observations

Data are for 10 minute period ending at time listed.
 Day   Time   Solar   Ave.   Ave.  Ave.  Vector  Max.   Baro.   Total    
  of    of     Rad.   Air    Rel.  Wind   Wind   Wind  Press.  Precip.   
Year   Day            Temp.  Hum.  Speed  Dir.   Gust                    
2016   (PST)  Kw/m2    F      %     mph   deg.    mph    mb.     in.     
-------------------------------------------------------------------------
 270    0:30   0.00   29.0    74    1.5   173     3.1   811.2    0.00 
 270    0:40   0.00   30.9    70    2.8   217     4.0   811.2    0.00 
 270    0:50   0.00   31.2    68    2.4   248     3.4   811.2    0.00 
 270    1:00   0.00   30.9    68    3.7   247     5.6   811.2    0.00 
 270    1:10   0.00   31.7    66    2.1   248     3.7   811.1    0.00 
 270    1:20   0.00   31.5    66    1.2   240     3.2   811.0    0.00 
 270    1:30   0.00   28.1    74    2.0   168     3.5   811.0    0.00 
 270    1:40   0.00   25.2    83    3.0   220     3.7   811.0    0.00 
 270    1:50   0.00   26.0    82    2.9   237     3.4   811.0    0.00 
 270    2:00   0.00   26.1    81    3.1   238     4.1   810.9    0.00 
 270    2:10   0.00   28.0    76    3.6   246     4.3   810.9    0.00 
 270    2:20   0.00   27.2    77    1.7   285     2.9   810.8    0.00 
 270    2:30   0.00   26.2    80    1.9   235     3.8   810.8    0.00 
 270    2:40   0.00   24.5    81    1.8   248     3.4   810.8    0.00 
 270    2:50   0.00   23.9    84    2.7   242     3.4   810.8    0.00 
 270    3:00   0.00   24.6    85    3.0   235     4.2   810.8    0.00 
 270    3:10   0.00   23.5    84    1.5   220     3.1   810.8    0.00 
 270    3:20   0.00   23.0    87    1.8   191     2.2   810.8    0.00 
 270    3:30   0.00   25.0    85    1.7   234     3.2   810.8    0.00 
 270    3:40   0.00   24.6    83    2.6   265     3.3   810.8    0.00 
 270    3:50   0.00   24.1    83    2.1   290     3.2   810.8    0.00 
 270    4:00   0.00   23.1    82    2.3   216     3.9   810.8    0.00 
 270    4:10   0.00   22.1    86    1.9   210     4.6   810.8    0.00 
 270    4:20   0.00   21.5    89    2.1   224     3.4   810.9    0.00 
 270    4:30   0.00   22.8    88    2.5   229     3.9   810.9    0.00 
 270    4:40   0.00   23.2    86    3.7   250     5.0   810.9    0.00 
 270    4:50   0.00   24.6    81    2.4   260     5.0   810.9    0.00 
 270    5:00   0.00   22.8    83    3.1   252     4.3   811.0    0.00 
 270    5:10   0.00   21.8    82    1.3   205     2.6   810.9    0.00 
 270    5:20   0.00   19.8    87    2.6   179     3.7   811.0    0.00 
 270    5:30   0.00   20.9    88    1.7   197     3.4   810.9    0.00 
 270    5:40   0.00   22.2    86    2.8   263     4.1   811.0    0.00 
 270    5:50   0.01   22.7    83    3.0   262     3.9   811.0    0.00 
 270    6:00   0.01   24.3    82    3.0   291     4.5   811.0    0.00 
 270    6:10   0.01   24.5    78    1.7   192     4.1   811.1    0.00 
 270    6:20   0.07   22.2    83    1.4   246     2.5   811.2    0.00 
 270    6:30   0.09   24.5    84    1.4   245     2.8   811.3    0.00 
 270    6:40   0.12   27.8    79    1.1   116     2.3   811.4    0.00 
 270    6:50   0.15   30.6    75    0.6   156     1.8   811.4    0.00 
 270    7:00   0.18   32.9    71    1.4   286     3.1   811.2    0.00 
 270    7:10   0.22   37.1    61    0.1   277     1.3   811.1    0.00 
 270    7:20   0.26   40.4    54    1.2   170     2.6   811.0    0.00 
 270    7:30   0.29   41.0    51    1.7   101     3.1   811.0    0.00 
 270    7:40   0.33   41.9    49    3.7    76     5.0   810.9    0.00 
 270    7:50   0.36   44.2    44    1.5    88     3.9   811.1    0.00 
 270    8:00   0.40   47.5    37    0.5   290     2.7   811.1    0.00 
 270    8:10   0.43   48.8    36    0.6   200     1.8   811.2    0.00 
 270    8:20   0.47   51.2    33    0.9    69     2.3   811.3    0.00 
 270    8:30   0.50   52.8    32    1.0    23     2.6   811.3    0.00 
 270    8:40   0.53   53.7    32    0.7   341     3.1   811.3    0.00 
 270    8:50   0.56   55.6    29    0.8   259     2.4   811.2    0.00 
 270    9:00   0.59   57.8    29    1.4   149     3.2   811.1    0.00 
 270    9:10   0.62   57.7    29    1.4    63     3.1   811.0    0.00 
 270    9:20   0.64   59.9    26    1.0   159     2.4   810.9    0.00 
 270    9:30   0.67   60.7    27    1.4   352     3.7   810.8    0.00 
 270    9:40   0.69   63.1    25    0.8   201     2.8   810.7    0.00 
 270    9:50   0.71   63.3    25    1.3    12     3.9   810.5    0.00 
 270   10:00   0.73   64.8    24    1.5   146     2.6   810.3    0.00 
 270   10:10   0.76   65.6    25    1.9   131     3.8   810.2    0.00 
 270   10:20   0.77   66.4    25    1.6    72     3.5   810.0    0.00 
 270   10:30   0.79   68.5    24    1.5   152     3.4   809.8    0.00 
 270   10:40   0.80   70.4    23    1.0   301     3.3   809.6    0.00 
 270   10:50   0.81   70.6    22    2.5    10     4.7   809.4    0.00 
 270   11:00   0.82   71.1    21    1.7   267     4.7   809.1    0.00 
 270   11:10   0.83   73.4    20    1.3   264     5.4   808.9    0.00 
 270   11:20   0.84   74.1    19    2.1    54     4.1   808.7    0.00 
 270   11:30   0.85   75.7    16    1.6   208     4.5   808.5    0.00 
 270   11:40   0.85   75.6    16    2.8   291     5.8   808.4    0.00 
 270   11:50   0.85   75.9    15    3.1    33     6.2   808.2    0.00 
 270   12:00   0.85   76.8    15    2.7     5     6.9   808.1    0.00 
 270   12:10   0.85   77.3    14    3.1    13     7.2   808.0    0.00 
 270   12:20   0.84   77.5    14    3.7    12     6.1   807.9    0.00 
 270   12:30   0.84   77.7    14    2.8    43     5.8   807.8    0.00 
 270   12:40   0.83   78.3    13    1.8    62     3.7   807.7    0.00 
 270   12:50   0.82   79.0    13    2.5    39     5.2   807.5    0.00 
 270   13:00   0.81   78.3    14    3.3    76     7.4   807.5    0.00 
 270   13:10   0.80   78.9    14    1.8    83     4.5   807.4    0.00 
 270   13:20   0.78   79.2    13    2.4   340     5.6   807.3    0.00 
 270   13:30   0.77   79.5    13    2.2   329     6.9   807.2    0.00 
 270   13:40   0.75   81.1    12    1.0    88     3.1   807.1    0.00 
 270   13:50   0.73   80.9    12    2.6    60     7.6   807.1    0.00 
 270   14:00   0.71   80.9    11    2.6    52     5.3   807.0    0.00 
 270   14:10   0.69   81.0    10    3.1    30     5.6   806.9    0.00 
 270   14:20   0.66   80.7    11    4.4    33    13.3   806.7    0.00 
 270   14:30   0.63   80.2    13    7.2    22    12.6   806.7    0.00 
 270   14:40   0.60   79.8    14    6.4    20    12.4   806.6    0.00 
 270   14:50   0.57   79.5    14    8.3    15    13.1   806.5    0.00 
 270   15:00   0.55   79.5    14    8.3     2    13.2   806.4    0.00 
 270   15:10   0.51   78.9    15   10.5   356    15.5   806.3    0.00 
 270   15:20   0.48   78.5    15   11.9   359    18.3   806.2    0.00 
 270   15:30   0.45   78.1    15   11.6     9    16.7   806.1    0.00 
 270   15:40   0.41   77.7    16   11.8    12    16.0   806.0    0.00 
 270   15:50   0.38   77.6    15   10.6    16    15.6   806.0    0.00 
 270   16:00   0.34   77.6    15   11.4    32    22.2   806.0    0.00 
 270   16:10   0.31   77.3    15    9.6    39    14.6   806.0    0.00 
 270   16:20   0.27   76.6    16    9.1    32    13.7   806.0    0.00 
 270   16:30   0.24   76.0    17    9.2    28    12.9   805.9    0.00 
 270   16:40   0.20   73.9    18   12.0    14    16.4   805.8    0.00 
 270   16:50   0.17   72.7    20   11.0    20    16.8   805.8    0.00 
 270   17:00   0.14   71.4    21   10.6    24    15.3   805.9    0.00 
 270   17:10   0.11   69.8    22    9.5    22    13.8   805.9    0.00 
 270   17:20   0.08   68.2    24    9.3    16    12.1   805.9    0.00 
 270   17:30   0.01   65.6    26    7.8    18    10.9   806.0    0.00 
 270   17:40   0.01   62.4    30    6.7    18     8.3   806.2    0.00 
 270   17:50   0.01   61.2    30    7.2    19     9.3   806.4    0.00 
 270   18:00   0.00   62.0    27    8.3    32    10.5   806.5    0.00 
 270   18:10   0.00   62.2    25    4.9    28     8.3   806.7    0.00 
 270   18:20   0.00   60.5    27    2.4    60     4.2   806.9    0.00 
 270   18:30   0.00   57.3    31    3.1   204     6.6   807.0    0.00 
 270   18:40   0.00   55.5    33    4.8   239     7.6   807.1    0.00 
 270   18:50   0.00   56.0    31    4.9   269     6.5   807.3    0.00 
 270   19:00   0.00   54.5    34    3.8   166     8.3   807.4    0.00 
 270   19:10   0.00   54.0    34    2.9   177     5.6   807.4    0.00 
 270   19:20   0.00   51.7    36    4.0   207     6.6   807.5    0.00 
 270   19:30   0.00   47.6    43    2.8   251     6.4   807.6    0.00 
 270   19:40   0.00   50.8    35    2.3   241     3.6   807.7    0.00 
 270   19:50   0.00   52.1    32    3.6   209     5.2   807.8    0.00 
 270   20:00   0.00   53.4    30    5.6   168     6.6   807.8    0.00 
 270   20:10   0.00   53.3    31    5.3   158     6.5   807.8    0.00 
 270   20:20   0.00   49.9    36    3.1   210     5.9   807.9    0.00 
 270   20:30   0.00   47.6    41    2.3   196     5.0   807.9    0.00 
 270   20:40   0.00   45.8    45    4.0   237     6.3   807.9    0.00 
 270   20:50   0.00   41.1    56    4.7   264     7.6   807.9    0.00 
 270   21:00   0.00   43.5    50    4.4   283     5.8   807.9    0.00 
 270   21:10   0.00   48.3    40    2.0   233     7.3   807.9    0.00 
 270   21:20   0.00   42.6    53    4.3   224     6.7   808.0    0.00 
 270   21:30   0.00   43.1    51    2.8   326     6.6   808.0    0.00 
 270   21:40   0.00   42.9    51    2.0    71     3.5   808.0    0.00 
 270   21:50   0.00   39.5    60    1.3   211     3.7   808.1    0.00 
 270   22:00   0.00   38.3    64    1.5   312     2.7   808.0    0.00 
 270   22:10   0.00   40.5    56    1.0   252     3.1   808.0    0.00 
 270   22:20   0.00   40.3    57    1.8   243     4.7   807.9    0.00 
 270   22:30   0.00   34.1    71    4.0   228     5.2   808.0    0.00 
 270   22:40   0.00   36.4    64    3.8   233     4.8   807.9    0.00 
 270   22:50   0.00   38.4    59    3.7   231     4.7   807.9    0.00 
 270   23:00   0.00   36.4    62    4.2   242     5.3   807.8    0.00 
 270   23:10   0.00   35.8    64    5.6   221     6.9   807.9    0.00 
 270   23:20   0.00   34.0    69    3.5   248     5.5   807.9    0.00 
 270   23:30   0.00   33.9    69    3.0   241     4.1   807.8    0.00 
 270   23:40   0.00   33.3    71    2.2   230     3.3   807.7    0.00 
 270   23:50   0.00   35.3    64    2.9   246     3.7   807.6    0.00 
 271    0:00   0.00   36.2    62    2.8   227     3.6   807.6    0.00 
 271    0:10   0.00   34.9    64    2.4   244     3.7   807.6    0.00 
 271    0:20   0.00   35.6    61    0.6   216     1.6   807.5    0.00 

Return to Bridgeport Valley graphs page.


Western Regional Climate Center,wrcc@dri.edu